sensor_id;sensor_type;location;lat;lon;timestamp;temperature;humidity
9329;DHT22;4703;48.748;19.142;2022-10-31T00:01:27;9.90;99.90
9329;DHT22;4703;48.748;19.142;2022-10-31T00:03:56;9.80;99.90
9329;DHT22;4703;48.748;19.142;2022-10-31T00:06:23;9.80;99.90
9329;DHT22;4703;48.748;19.142;2022-10-31T00:08:55;12.80;99.90
9329;DHT22;4703;48.748;19.142;2022-10-31T00:11:24;9.90;99.90
9329;DHT22;4703;48.748;19.142;2022-10-31T00:13:52;12.20;99.90
9329;DHT22;4703;48.748;19.142;2022-10-31T00:16:23;9.80;99.90
9329;DHT22;4703;48.748;19.142;2022-10-31T00:18:56;11.00;99.90
9329;DHT22;4703;48.748;19.142;2022-10-31T00:21:25;10.50;99.90
9329;DHT22;4703;48.748;19.142;2022-10-31T00:23:53;10.30;99.90
9329;DHT22;4703;48.748;19.142;2022-10-31T00:26:20;9.70;99.90
9329;DHT22;4703;48.748;19.142;2022-10-31T00:28:47;9.70;99.90
9329;DHT22;4703;48.748;19.142;2022-10-31T00:31:15;9.70;99.90
9329;DHT22;4703;48.748;19.142;2022-10-31T00:33:42;9.60;99.90
9329;DHT22;4703;48.748;19.142;2022-10-31T00:36:15;9.60;99.90
9329;DHT22;4703;48.748;19.142;2022-10-31T00:38:44;9.60;99.90
9329;DHT22;4703;48.748;19.142;2022-10-31T00:41:13;11.00;99.90
9329;DHT22;4703;48.748;19.142;2022-10-31T00:43:42;9.60;99.90
9329;DHT22;4703;48.748;19.142;2022-10-31T00:46:10;9.60;99.90
9329;DHT22;4703;48.748;19.142;2022-10-31T00:48:38;9.60;99.90
9329;DHT22;4703;48.748;19.142;2022-10-31T00:51:05;9.60;99.90
9329;DHT22;4703;48.748;19.142;2022-10-31T00:53:32;9.60;99.90
9329;DHT22;4703;48.748;19.142;2022-10-31T00:55:59;9.60;99.90
9329;DHT22;4703;48.748;19.142;2022-10-31T00:58:26;9.60;99.90
9329;DHT22;4703;48.748;19.142;2022-10-31T01:00:53;9.60;99.90
9329;DHT22;4703;48.748;19.142;2022-10-31T01:03:26;9.50;99.90
9329;DHT22;4703;48.748;19.142;2022-10-31T01:05:59;9.50;99.90
9329;DHT22;4703;48.748;19.142;2022-10-31T01:08:28;11.50;99.90
9329;DHT22;4703;48.748;19.142;2022-10-31T01:11:17;9.40;99.90
9329;DHT22;4703;48.748;19.142;2022-10-31T01:13:46;9.40;99.90
9329;DHT22;4703;48.748;19.142;2022-10-31T01:16:16;9.40;99.90
9329;DHT22;4703;48.748;19.142;2022-10-31T01:18:44;9.40;99.90
9329;DHT22;4703;48.748;19.142;2022-10-31T01:21:19;11.50;99.90
9329;DHT22;4703;48.748;19.142;2022-10-31T01:23:48;9.40;99.90
9329;DHT22;4703;48.748;19.142;2022-10-31T01:26:18;9.40;99.90
9329;DHT22;4703;48.748;19.142;2022-10-31T01:28:49;9.40;99.90
9329;DHT22;4703;48.748;19.142;2022-10-31T01:31:20;9.40;99.90
9329;DHT22;4703;48.748;19.142;2022-10-31T01:33:48;9.40;99.90
9329;DHT22;4703;48.748;19.142;2022-10-31T01:38:49;9.40;99.90
9329;DHT22;4703;48.748;19.142;2022-10-31T01:41:20;9.30;99.90
9329;DHT22;4703;48.748;19.142;2022-10-31T01:44:00;9.30;99.90
9329;DHT22;4703;48.748;19.142;2022-10-31T01:46:38;11.50;99.90
9329;DHT22;4703;48.748;19.142;2022-10-31T01:49:31;9.20;99.90
9329;DHT22;4703;48.748;19.142;2022-10-31T01:52:03;9.30;99.90
9329;DHT22;4703;48.748;19.142;2022-10-31T01:54:39;9.30;99.90
9329;DHT22;4703;48.748;19.142;2022-10-31T01:57:10;9.30;99.90
9329;DHT22;4703;48.748;19.142;2022-10-31T01:59:42;9.30;99.90
9329;DHT22;4703;48.748;19.142;2022-10-31T02:02:13;9.30;99.90
9329;DHT22;4703;48.748;19.142;2022-10-31T02:04:43;9.30;99.90
9329;DHT22;4703;48.748;19.142;2022-10-31T02:07:13;11.30;99.90
9329;DHT22;4703;48.748;19.142;2022-10-31T02:09:42;9.30;99.90
9329;DHT22;4703;48.748;19.142;2022-10-31T02:12:10;9.20;99.90
9329;DHT22;4703;48.748;19.142;2022-10-31T02:14:38;9.20;99.90
9329;DHT22;4703;48.748;19.142;2022-10-31T02:17:06;11.30;99.90
9329;DHT22;4703;48.748;19.142;2022-10-31T02:19:41;9.20;99.90
9329;DHT22;4703;48.748;19.142;2022-10-31T02:22:30;9.20;99.90
9329;DHT22;4703;48.748;19.142;2022-10-31T02:25:41;9.20;99.90
9329;DHT22;4703;48.748;19.142;2022-10-31T02:28:29;9.20;99.90
9329;DHT22;4703;48.748;19.142;2022-10-31T02:31:57;9.20;99.90
9329;DHT22;4703;48.748;19.142;2022-10-31T02:37:09;9.10;99.90
9329;DHT22;4703;48.748;19.142;2022-10-31T02:39:47;9.10;99.90
9329;DHT22;4703;48.748;19.142;2022-10-31T02:48:27;9.00;99.90
9329;DHT22;4703;48.748;19.142;2022-10-31T02:51:00;9.00;99.90
9329;DHT22;4703;48.748;19.142;2022-10-31T02:53:35;9.00;99.90
9329;DHT22;4703;48.748;19.142;2022-10-31T02:56:13;9.00;99.90
9329;DHT22;4703;48.748;19.142;2022-10-31T02:58:57;9.00;99.90
9329;DHT22;4703;48.748;19.142;2022-10-31T03:04:57;9.10;99.90
9329;DHT22;4703;48.748;19.142;2022-10-31T03:07:51;9.00;99.90
9329;DHT22;4703;48.748;19.142;2022-10-31T03:10:44;9.00;99.90
9329;DHT22;4703;48.748;19.142;2022-10-31T03:13:35;9.00;99.90
9329;DHT22;4703;48.748;19.142;2022-10-31T03:19:06;9.00;99.90
9329;DHT22;4703;48.748;19.142;2022-10-31T03:21:36;9.10;99.90
9329;DHT22;4703;48.748;19.142;2022-10-31T03:24:08;9.00;99.90
9329;DHT22;4703;48.748;19.142;2022-10-31T03:26:39;9.00;99.90
9329;DHT22;4703;48.748;19.142;2022-10-31T03:29:10;9.00;99.90
9329;DHT22;4703;48.748;19.142;2022-10-31T03:31:59;8.90;99.90
9329;DHT22;4703;48.748;19.142;2022-10-31T03:34:29;8.90;99.90
9329;DHT22;4703;48.748;19.142;2022-10-31T03:37:00;8.90;99.90
9329;DHT22;4703;48.748;19.142;2022-10-31T03:39:29;8.90;99.90
9329;DHT22;4703;48.748;19.142;2022-10-31T03:42:04;8.90;99.90
9329;DHT22;4703;48.748;19.142;2022-10-31T03:44:33;8.80;99.90
9329;DHT22;4703;48.748;19.142;2022-10-31T03:47:02;8.90;99.90
9329;DHT22;4703;48.748;19.142;2022-10-31T03:49:31;8.80;99.90
9329;DHT22;4703;48.748;19.142;2022-10-31T03:54:58;9.20;99.90
9329;DHT22;4703;48.748;19.142;2022-10-31T03:57:41;8.80;99.90
9329;DHT22;4703;48.748;19.142;2022-10-31T04:00:12;8.70;99.90
9329;DHT22;4703;48.748;19.142;2022-10-31T04:02:48;8.70;99.90
9329;DHT22;4703;48.748;19.142;2022-10-31T04:05:22;8.70;99.90
9329;DHT22;4703;48.748;19.142;2022-10-31T04:07:54;8.70;99.90
9329;DHT22;4703;48.748;19.142;2022-10-31T04:10:22;8.70;99.90
9329;DHT22;4703;48.748;19.142;2022-10-31T04:13:03;8.70;99.90
9329;DHT22;4703;48.748;19.142;2022-10-31T04:15:33;8.70;99.90
9329;DHT22;4703;48.748;19.142;2022-10-31T04:18:04;8.70;99.90
9329;DHT22;4703;48.748;19.142;2022-10-31T04:20:34;8.60;99.90
9329;DHT22;4703;48.748;19.142;2022-10-31T04:25:46;8.60;99.90
9329;DHT22;4703;48.748;19.142;2022-10-31T04:28:12;8.60;99.90
9329;DHT22;4703;48.748;19.142;2022-10-31T04:30:39;11.40;99.90
9329;DHT22;4703;48.748;19.142;2022-10-31T04:33:06;8.60;99.90
9329;DHT22;4703;48.748;19.142;2022-10-31T04:35:33;8.60;99.90
9329;DHT22;4703;48.748;19.142;2022-10-31T04:38:00;8.60;99.90
9329;DHT22;4703;48.748;19.142;2022-10-31T04:40:27;8.60;99.90
9329;DHT22;4703;48.748;19.142;2022-10-31T04:42:54;10.70;99.90
9329;DHT22;4703;48.748;19.142;2022-10-31T04:45:21;8.70;99.90
9329;DHT22;4703;48.748;19.142;2022-10-31T04:47:48;8.60;99.90
9329;DHT22;4703;48.748;19.142;2022-10-31T04:50:15;8.60;99.90
9329;DHT22;4703;48.748;19.142;2022-10-31T04:52:43;8.70;99.90
9329;DHT22;4703;48.748;19.142;2022-10-31T04:55:12;8.60;99.90
9329;DHT22;4703;48.748;19.142;2022-10-31T04:57:47;8.70;99.90
9329;DHT22;4703;48.748;19.142;2022-10-31T05:00:17;8.60;99.90
9329;DHT22;4703;48.748;19.142;2022-10-31T05:02:47;8.60;99.90
9329;DHT22;4703;48.748;19.142;2022-10-31T05:05:17;6.90;99.90
9329;DHT22;4703;48.748;19.142;2022-10-31T05:07:47;11.00;99.90
9329;DHT22;4703;48.748;19.142;2022-10-31T05:10:17;8.60;99.90
9329;DHT22;4703;48.748;19.142;2022-10-31T05:12:53;8.60;99.90
9329;DHT22;4703;48.748;19.142;2022-10-31T05:15:26;8.60;99.90
9329;DHT22;4703;48.748;19.142;2022-10-31T05:17:54;10.00;99.90
9329;DHT22;4703;48.748;19.142;2022-10-31T05:20:26;8.50;99.90
9329;DHT22;4703;48.748;19.142;2022-10-31T05:22:55;8.50;99.90
9329;DHT22;4703;48.748;19.142;2022-10-31T05:25:25;8.50;99.90
9329;DHT22;4703;48.748;19.142;2022-10-31T05:27:55;8.50;99.90
9329;DHT22;4703;48.748;19.142;2022-10-31T05:30:28;8.40;99.90
9329;DHT22;4703;48.748;19.142;2022-10-31T05:32:56;8.50;99.90
9329;DHT22;4703;48.748;19.142;2022-10-31T05:35:30;8.80;99.90
9329;DHT22;4703;48.748;19.142;2022-10-31T05:37:58;8.40;99.90
9329;DHT22;4703;48.748;19.142;2022-10-31T05:40:27;8.40;99.90
9329;DHT22;4703;48.748;19.142;2022-10-31T05:42:55;8.40;99.90
9329;DHT22;4703;48.748;19.142;2022-10-31T05:45:24;8.40;99.90
9329;DHT22;4703;48.748;19.142;2022-10-31T05:50:19;8.40;99.90
9329;DHT22;4703;48.748;19.142;2022-10-31T05:52:46;8.40;99.90
9329;DHT22;4703;48.748;19.142;2022-10-31T05:55:13;8.40;99.90
9329;DHT22;4703;48.748;19.142;2022-10-31T05:57:40;8.40;99.90
9329;DHT22;4703;48.748;19.142;2022-10-31T06:00:07;10.10;99.90
9329;DHT22;4703;48.748;19.142;2022-10-31T06:02:35;8.40;99.90
9329;DHT22;4703;48.748;19.142;2022-10-31T06:05:02;8.40;99.90
9329;DHT22;4703;48.748;19.142;2022-10-31T06:07:34;8.40;99.90
9329;DHT22;4703;48.748;19.142;2022-10-31T06:10:03;8.40;99.90
9329;DHT22;4703;48.748;19.142;2022-10-31T06:12:31;8.40;99.90
9329;DHT22;4703;48.748;19.142;2022-10-31T06:14:58;8.40;99.90
9329;DHT22;4703;48.748;19.142;2022-10-31T06:17:25;8.60;99.90
9329;DHT22;4703;48.748;19.142;2022-10-31T06:19:52;8.40;99.90
9329;DHT22;4703;48.748;19.142;2022-10-31T06:22:19;8.50;99.90
9329;DHT22;4703;48.748;19.142;2022-10-31T06:24:46;8.50;99.90
9329;DHT22;4703;48.748;19.142;2022-10-31T06:27:13;8.50;99.90
9329;DHT22;4703;48.748;19.142;2022-10-31T06:29:39;10.10;99.90
9329;DHT22;4703;48.748;19.142;2022-10-31T06:32:10;8.50;99.90
9329;DHT22;4703;48.748;19.142;2022-10-31T06:34:38;8.50;99.90
9329;DHT22;4703;48.748;19.142;2022-10-31T06:37:07;10.70;99.90
9329;DHT22;4703;48.748;19.142;2022-10-31T06:39:34;8.50;99.90
9329;DHT22;4703;48.748;19.142;2022-10-31T06:42:02;8.90;99.90
9329;DHT22;4703;48.748;19.142;2022-10-31T06:44:30;8.60;99.90
9329;DHT22;4703;48.748;19.142;2022-10-31T06:46:57;8.60;99.90
9329;DHT22;4703;48.748;19.142;2022-10-31T06:49:24;8.70;99.90
9329;DHT22;4703;48.748;19.142;2022-10-31T06:51:51;8.70;99.90
9329;DHT22;4703;48.748;19.142;2022-10-31T06:54:18;8.70;99.90
9329;DHT22;4703;48.748;19.142;2022-10-31T06:56:46;8.70;99.90
9329;DHT22;4703;48.748;19.142;2022-10-31T06:59:16;8.80;99.90
9329;DHT22;4703;48.748;19.142;2022-10-31T07:01:43;8.80;99.90
9329;DHT22;4703;48.748;19.142;2022-10-31T07:04:10;8.80;99.90
9329;DHT22;4703;48.748;19.142;2022-10-31T07:06:38;8.80;99.90
9329;DHT22;4703;48.748;19.142;2022-10-31T07:09:05;8.80;99.90
9329;DHT22;4703;48.748;19.142;2022-10-31T07:11:32;11.50;99.90
9329;DHT22;4703;48.748;19.142;2022-10-31T07:13:59;8.90;99.90
9329;DHT22;4703;48.748;19.142;2022-10-31T07:16:26;8.90;99.90
9329;DHT22;4703;48.748;19.142;2022-10-31T07:18:53;8.90;99.90
9329;DHT22;4703;48.748;19.142;2022-10-31T07:21:20;8.90;99.90
9329;DHT22;4703;48.748;19.142;2022-10-31T07:23:48;10.50;99.90
9329;DHT22;4703;48.748;19.142;2022-10-31T07:26:15;8.90;99.90
9329;DHT22;4703;48.748;19.142;2022-10-31T07:28:42;8.90;99.90
9329;DHT22;4703;48.748;19.142;2022-10-31T07:31:09;8.90;99.90
9329;DHT22;4703;48.748;19.142;2022-10-31T07:33:36;9.00;99.90
9329;DHT22;4703;48.748;19.142;2022-10-31T07:36:03;9.00;99.90
9329;DHT22;4703;48.748;19.142;2022-10-31T07:38:30;9.10;99.90
9329;DHT22;4703;48.748;19.142;2022-10-31T07:40:57;11.90;99.90
9329;DHT22;4703;48.748;19.142;2022-10-31T07:43:24;9.10;99.90
9329;DHT22;4703;48.748;19.142;2022-10-31T07:45:52;9.00;99.90
9329;DHT22;4703;48.748;19.142;2022-10-31T07:48:20;8.90;99.90
9329;DHT22;4703;48.748;19.142;2022-10-31T07:50:47;10.90;99.90
9329;DHT22;4703;48.748;19.142;2022-10-31T07:53:14;9.10;99.90
9329;DHT22;4703;48.748;19.142;2022-10-31T07:55:42;9.10;99.90
9329;DHT22;4703;48.748;19.142;2022-10-31T07:58:15;9.60;99.90
9329;DHT22;4703;48.748;19.142;2022-10-31T08:00:46;9.20;99.90
9329;DHT22;4703;48.748;19.142;2022-10-31T08:03:15;9.20;99.90
9329;DHT22;4703;48.748;19.142;2022-10-31T08:05:44;9.20;99.90
9329;DHT22;4703;48.748;19.142;2022-10-31T08:08:13;10.50;99.90
9329;DHT22;4703;48.748;19.142;2022-10-31T08:10:40;9.80;99.90
9329;DHT22;4703;48.748;19.142;2022-10-31T08:13:13;12.00;99.90
9329;DHT22;4703;48.748;19.142;2022-10-31T08:15:40;9.20;99.90
9329;DHT22;4703;48.748;19.142;2022-10-31T08:18:14;11.20;99.90
9329;DHT22;4703;48.748;19.142;2022-10-31T08:20:42;9.30;99.90
9329;DHT22;4703;48.748;19.142;2022-10-31T08:23:11;9.30;99.90
9329;DHT22;4703;48.748;19.142;2022-10-31T08:25:38;11.90;99.90
9329;DHT22;4703;48.748;19.142;2022-10-31T08:28:06;11.90;99.90
9329;DHT22;4703;48.748;19.142;2022-10-31T08:30:35;10.20;99.90
9329;DHT22;4703;48.748;19.142;2022-10-31T08:33:04;12.60;99.90
9329;DHT22;4703;48.748;19.142;2022-10-31T08:35:34;9.40;99.90
9329;DHT22;4703;48.748;19.142;2022-10-31T08:38:01;11.70;99.90
9329;DHT22;4703;48.748;19.142;2022-10-31T08:40:30;12.00;99.90
9329;DHT22;4703;48.748;19.142;2022-10-31T08:43:03;9.50;99.90
9329;DHT22;4703;48.748;19.142;2022-10-31T08:45:37;10.50;99.90
9329;DHT22;4703;48.748;19.142;2022-10-31T08:48:06;9.50;99.90
9329;DHT22;4703;48.748;19.142;2022-10-31T08:50:37;9.50;99.90
9329;DHT22;4703;48.748;19.142;2022-10-31T08:53:06;11.80;99.90
9329;DHT22;4703;48.748;19.142;2022-10-31T08:55:36;12.50;99.90
9329;DHT22;4703;48.748;19.142;2022-10-31T08:58:05;9.70;99.90
9329;DHT22;4703;48.748;19.142;2022-10-31T09:00:34;9.80;99.90
9329;DHT22;4703;48.748;19.142;2022-10-31T09:03:04;12.00;99.90
9329;DHT22;4703;48.748;19.142;2022-10-31T09:05:33;9.80;99.90
9329;DHT22;4703;48.748;19.142;2022-10-31T09:08:02;11.00;99.90
9329;DHT22;4703;48.748;19.142;2022-10-31T09:10:32;9.90;99.90
9329;DHT22;4703;48.748;19.142;2022-10-31T09:13:03;10.00;99.90
9329;DHT22;4703;48.748;19.142;2022-10-31T09:15:38;10.10;99.90
9329;DHT22;4703;48.748;19.142;2022-10-31T09:18:07;10.10;99.90
9329;DHT22;4703;48.748;19.142;2022-10-31T09:20:36;11.20;99.90
9329;DHT22;4703;48.748;19.142;2022-10-31T09:23:06;10.20;99.90
9329;DHT22;4703;48.748;19.142;2022-10-31T09:25:35;12.70;99.90
9329;DHT22;4703;48.748;19.142;2022-10-31T09:28:04;10.20;99.90
9329;DHT22;4703;48.748;19.142;2022-10-31T09:30:33;10.20;99.90
9329;DHT22;4703;48.748;19.142;2022-10-31T09:33:07;11.90;99.90
9329;DHT22;4703;48.748;19.142;2022-10-31T09:35:37;10.50;99.90
9329;DHT22;4703;48.748;19.142;2022-10-31T09:38:06;10.30;99.90
9329;DHT22;4703;48.748;19.142;2022-10-31T09:40:46;10.30;99.90
9329;DHT22;4703;48.748;19.142;2022-10-31T09:43:34;10.40;99.90
9329;DHT22;4703;48.748;19.142;2022-10-31T09:51:31;10.60;99.90
9329;DHT22;4703;48.748;19.142;2022-10-31T09:56:48;10.70;99.90
9329;DHT22;4703;48.748;19.142;2022-10-31T09:59:29;10.80;99.90
9329;DHT22;4703;48.748;19.142;2022-10-31T10:02:02;10.90;99.90
9329;DHT22;4703;48.748;19.142;2022-10-31T10:22:17;11.30;99.90
9329;DHT22;4703;48.748;19.142;2022-10-31T10:25:16;12.70;99.90
9329;DHT22;4703;48.748;19.142;2022-10-31T10:30:46;11.50;99.90
9329;DHT22;4703;48.748;19.142;2022-10-31T10:36:33;11.50;99.90
9329;DHT22;4703;48.748;19.142;2022-10-31T10:39:23;11.50;99.90
9329;DHT22;4703;48.748;19.142;2022-10-31T10:42:09;11.50;99.90
9329;DHT22;4703;48.748;19.142;2022-10-31T10:44:57;11.50;99.90
9329;DHT22;4703;48.748;19.142;2022-10-31T10:47:47;11.50;99.90
9329;DHT22;4703;48.748;19.142;2022-10-31T10:50:21;11.70;99.90
9329;DHT22;4703;48.748;19.142;2022-10-31T10:53:02;12.60;99.90
9329;DHT22;4703;48.748;19.142;2022-10-31T10:55:43;11.60;99.90
9329;DHT22;4703;48.748;19.142;2022-10-31T10:58:17;12.90;99.90
9329;DHT22;4703;48.748;19.142;2022-10-31T11:00:46;12.80;99.90
9329;DHT22;4703;48.748;19.142;2022-10-31T11:03:14;11.80;99.90
9329;DHT22;4703;48.748;19.142;2022-10-31T11:05:51;11.90;99.90
9329;DHT22;4703;48.748;19.142;2022-10-31T11:08:24;13.70;99.90
9329;DHT22;4703;48.748;19.142;2022-10-31T11:13:48;12.30;99.90
9329;DHT22;4703;48.748;19.142;2022-10-31T11:16:31;13.10;99.90
9329;DHT22;4703;48.748;19.142;2022-10-31T11:19:20;12.60;99.90
9329;DHT22;4703;48.748;19.142;2022-10-31T11:21:49;12.70;99.90
9329;DHT22;4703;48.748;19.142;2022-10-31T11:24:24;13.50;99.90
9329;DHT22;4703;48.748;19.142;2022-10-31T11:27:12;13.00;99.90
9329;DHT22;4703;48.748;19.142;2022-10-31T11:29:40;13.00;99.90
9329;DHT22;4703;48.748;19.142;2022-10-31T11:32:23;13.10;99.90
9329;DHT22;4703;48.748;19.142;2022-10-31T11:34:57;13.20;99.90
9329;DHT22;4703;48.748;19.142;2022-10-31T11:37:35;13.30;99.90
9329;DHT22;4703;48.748;19.142;2022-10-31T11:40:16;13.90;99.90
9329;DHT22;4703;48.748;19.142;2022-10-31T11:42:47;13.30;99.90
9329;DHT22;4703;48.748;19.142;2022-10-31T11:47:52;13.30;99.90
9329;DHT22;4703;48.748;19.142;2022-10-31T11:50:30;14.60;99.90
9329;DHT22;4703;48.748;19.142;2022-10-31T11:53:01;14.40;99.90
9329;DHT22;4703;48.748;19.142;2022-10-31T11:55:37;14.30;99.90
9329;DHT22;4703;48.748;19.142;2022-10-31T11:58:25;14.90;99.90
9329;DHT22;4703;48.748;19.142;2022-10-31T12:00:57;13.10;99.90
9329;DHT22;4703;48.748;19.142;2022-10-31T12:06:36;13.00;99.90
9329;DHT22;4703;48.748;19.142;2022-10-31T12:09:34;13.00;99.90
9329;DHT22;4703;48.748;19.142;2022-10-31T12:20:56;13.10;99.90
9329;DHT22;4703;48.748;19.142;2022-10-31T12:29:33;13.30;99.90
9329;DHT22;4703;48.748;19.142;2022-10-31T12:35:40;13.40;99.90
9329;DHT22;4703;48.748;19.142;2022-10-31T12:38:47;13.50;99.90
9329;DHT22;4703;48.748;19.142;2022-10-31T12:47:20;13.80;99.90
9329;DHT22;4703;48.748;19.142;2022-10-31T12:49:58;13.90;99.90
9329;DHT22;4703;48.748;19.142;2022-10-31T12:52:54;14.00;99.90
9329;DHT22;4703;48.748;19.142;2022-10-31T12:55:51;15.30;99.90
9329;DHT22;4703;48.748;19.142;2022-10-31T12:58:40;14.10;99.90
9329;DHT22;4703;48.748;19.142;2022-10-31T13:01:25;14.20;99.90
9329;DHT22;4703;48.748;19.142;2022-10-31T13:06:42;15.20;99.90
9329;DHT22;4703;48.748;19.142;2022-10-31T13:09:25;14.30;99.90
9329;DHT22;4703;48.748;19.142;2022-10-31T13:12:12;16.20;99.90
9329;DHT22;4703;48.748;19.142;2022-10-31T13:14:51;15.70;99.90
9329;DHT22;4703;48.748;19.142;2022-10-31T13:17:33;14.40;99.90
9329;DHT22;4703;48.748;19.142;2022-10-31T13:20:23;14.40;99.90
9329;DHT22;4703;48.748;19.142;2022-10-31T13:23:19;14.40;99.90
9329;DHT22;4703;48.748;19.142;2022-10-31T13:26:12;14.30;99.90
9329;DHT22;4703;48.748;19.142;2022-10-31T13:28:41;14.20;99.90
9329;DHT22;4703;48.748;19.142;2022-10-31T13:31:13;15.40;99.90
9329;DHT22;4703;48.748;19.142;2022-10-31T13:34:09;14.10;99.90
9329;DHT22;4703;48.748;19.142;2022-10-31T13:45:48;15.40;99.90
9329;DHT22;4703;48.748;19.142;2022-10-31T13:50:59;13.50;99.90
9329;DHT22;4703;48.748;19.142;2022-10-31T13:56:15;13.50;99.90
9329;DHT22;4703;48.748;19.142;2022-10-31T14:01:23;14.40;99.90
9329;DHT22;4703;48.748;19.142;2022-10-31T14:04:03;15.10;99.90
9329;DHT22;4703;48.748;19.142;2022-10-31T14:12:40;13.30;99.90
9329;DHT22;4703;48.748;19.142;2022-10-31T14:15:36;13.30;99.90
9329;DHT22;4703;48.748;19.142;2022-10-31T14:18:06;13.30;99.90
9329;DHT22;4703;48.748;19.142;2022-10-31T14:20:47;14.70;99.90
9329;DHT22;4703;48.748;19.142;2022-10-31T14:28:55;14.30;99.90
9329;DHT22;4703;48.748;19.142;2022-10-31T14:34:24;13.20;99.90
9329;DHT22;4703;48.748;19.142;2022-10-31T14:37:12;13.20;99.90
9329;DHT22;4703;48.748;19.142;2022-10-31T14:43:39;13.10;99.90
9329;DHT22;4703;48.748;19.142;2022-10-31T14:49:35;13.00;99.90
9329;DHT22;4703;48.748;19.142;2022-10-31T14:52:08;12.90;99.90
9329;DHT22;4703;48.748;19.142;2022-10-31T14:54:40;12.90;99.90
9329;DHT22;4703;48.748;19.142;2022-10-31T14:57:27;12.80;99.90
9329;DHT22;4703;48.748;19.142;2022-10-31T15:00:03;12.80;99.90
9329;DHT22;4703;48.748;19.142;2022-10-31T15:06:05;12.60;99.90
9329;DHT22;4703;48.748;19.142;2022-10-31T15:08:49;12.50;99.90
9329;DHT22;4703;48.748;19.142;2022-10-31T15:11:24;13.70;99.90
9329;DHT22;4703;48.748;19.142;2022-10-31T15:13:57;12.40;99.90
9329;DHT22;4703;48.748;19.142;2022-10-31T15:16:31;12.40;99.90
9329;DHT22;4703;48.748;19.142;2022-10-31T15:19:13;15.30;99.90
9329;DHT22;4703;48.748;19.142;2022-10-31T15:21:44;12.20;99.90
9329;DHT22;4703;48.748;19.142;2022-10-31T15:24:16;14.90;99.90
9329;DHT22;4703;48.748;19.142;2022-10-31T15:26:50;12.10;99.90
9329;DHT22;4703;48.748;19.142;2022-10-31T15:29:20;12.10;99.90
9329;DHT22;4703;48.748;19.142;2022-10-31T15:32:00;14.40;99.90
9329;DHT22;4703;48.748;19.142;2022-10-31T15:34:40;11.90;99.90
9329;DHT22;4703;48.748;19.142;2022-10-31T15:37:13;12.80;99.90
9329;DHT22;4703;48.748;19.142;2022-10-31T15:39:42;11.80;99.90
9329;DHT22;4703;48.748;19.142;2022-10-31T15:42:32;13.20;99.90
9329;DHT22;4703;48.748;19.142;2022-10-31T15:45:12;11.70;99.90
9329;DHT22;4703;48.748;19.142;2022-10-31T15:48:34;11.70;99.90
9329;DHT22;4703;48.748;19.142;2022-10-31T15:50:52;11.60;99.90
9329;DHT22;4703;48.748;19.142;2022-10-31T15:56:30;11.50;99.90
9329;DHT22;4703;48.748;19.142;2022-10-31T15:58:59;11.50;99.90
9329;DHT22;4703;48.748;19.142;2022-10-31T16:01:29;11.40;99.90
9329;DHT22;4703;48.748;19.142;2022-10-31T16:04:04;12.60;99.90
9329;DHT22;4703;48.748;19.142;2022-10-31T16:06:38;11.40;99.90
9329;DHT22;4703;48.748;19.142;2022-10-31T16:09:21;11.40;99.90
9329;DHT22;4703;48.748;19.142;2022-10-31T16:11:49;11.30;99.90
9329;DHT22;4703;48.748;19.142;2022-10-31T16:14:19;14.00;99.90
9329;DHT22;4703;48.748;19.142;2022-10-31T16:16:53;13.50;99.90
9329;DHT22;4703;48.748;19.142;2022-10-31T16:19:23;11.30;99.90
9329;DHT22;4703;48.748;19.142;2022-10-31T16:21:55;11.20;99.90
9329;DHT22;4703;48.748;19.142;2022-10-31T16:24:32;11.40;99.90
9329;DHT22;4703;48.748;19.142;2022-10-31T16:27:18;12.80;99.90
9329;DHT22;4703;48.748;19.142;2022-10-31T16:29:47;11.20;99.90
9329;DHT22;4703;48.748;19.142;2022-10-31T16:32:59;11.10;99.90
9329;DHT22;4703;48.748;19.142;2022-10-31T16:35:38;11.10;99.90
9329;DHT22;4703;48.748;19.142;2022-10-31T16:38:06;11.10;99.90
9329;DHT22;4703;48.748;19.142;2022-10-31T16:40:38;11.10;99.90
9329;DHT22;4703;48.748;19.142;2022-10-31T16:43:05;11.10;99.90
9329;DHT22;4703;48.748;19.142;2022-10-31T16:45:38;11.10;99.90
9329;DHT22;4703;48.748;19.142;2022-10-31T16:48:12;11.10;99.90
9329;DHT22;4703;48.748;19.142;2022-10-31T16:50:42;11.20;99.90
9329;DHT22;4703;48.748;19.142;2022-10-31T16:53:10;11.20;99.90
9329;DHT22;4703;48.748;19.142;2022-10-31T16:55:50;11.20;99.90
9329;DHT22;4703;48.748;19.142;2022-10-31T16:58:28;11.20;99.90
9329;DHT22;4703;48.748;19.142;2022-10-31T17:00:56;11.20;99.90
9329;DHT22;4703;48.748;19.142;2022-10-31T17:03:24;11.10;99.90
9329;DHT22;4703;48.748;19.142;2022-10-31T17:05:51;11.10;99.90
9329;DHT22;4703;48.748;19.142;2022-10-31T17:08:18;11.10;99.90
9329;DHT22;4703;48.748;19.142;2022-10-31T17:10:46;11.00;99.90
9329;DHT22;4703;48.748;19.142;2022-10-31T17:13:19;14.00;99.90
9329;DHT22;4703;48.748;19.142;2022-10-31T17:15:52;11.00;99.90
9329;DHT22;4703;48.748;19.142;2022-10-31T17:18:20;11.00;99.90
9329;DHT22;4703;48.748;19.142;2022-10-31T17:20:58;13.50;99.90
9329;DHT22;4703;48.748;19.142;2022-10-31T17:23:27;11.10;99.90
9329;DHT22;4703;48.748;19.142;2022-10-31T17:25:55;13.80;99.90
9329;DHT22;4703;48.748;19.142;2022-10-31T17:28:22;13.70;99.90
9329;DHT22;4703;48.748;19.142;2022-10-31T17:30:50;11.00;99.90
9329;DHT22;4703;48.748;19.142;2022-10-31T17:33:19;11.00;99.90
9329;DHT22;4703;48.748;19.142;2022-10-31T17:35:47;12.90;99.90
9329;DHT22;4703;48.748;19.142;2022-10-31T17:38:14;11.00;99.90
9329;DHT22;4703;48.748;19.142;2022-10-31T17:40:41;11.00;99.90
9329;DHT22;4703;48.748;19.142;2022-10-31T17:43:09;13.40;99.90
9329;DHT22;4703;48.748;19.142;2022-10-31T17:45:41;12.10;99.90
9329;DHT22;4703;48.748;19.142;2022-10-31T17:48:11;11.00;99.90
9329;DHT22;4703;48.748;19.142;2022-10-31T17:50:38;12.30;99.90
9329;DHT22;4703;48.748;19.142;2022-10-31T17:53:05;11.10;99.90
9329;DHT22;4703;48.748;19.142;2022-10-31T17:55:32;13.30;99.90
9329;DHT22;4703;48.748;19.142;2022-10-31T17:58:03;12.70;99.90
9329;DHT22;4703;48.748;19.142;2022-10-31T18:00:31;11.60;99.90
9329;DHT22;4703;48.748;19.142;2022-10-31T18:03:00;11.10;99.90
9329;DHT22;4703;48.748;19.142;2022-10-31T18:05:29;11.10;99.90
9329;DHT22;4703;48.748;19.142;2022-10-31T18:07:56;11.10;99.90
9329;DHT22;4703;48.748;19.142;2022-10-31T18:10:29;11.00;99.90
9329;DHT22;4703;48.748;19.142;2022-10-31T18:12:55;11.10;99.90
9329;DHT22;4703;48.748;19.142;2022-10-31T18:15:22;13.30;99.90
9329;DHT22;4703;48.748;19.142;2022-10-31T18:17:49;14.10;99.90
9329;DHT22;4703;48.748;19.142;2022-10-31T18:20:16;11.00;99.90
9329;DHT22;4703;48.748;19.142;2022-10-31T18:22:43;11.00;99.90
9329;DHT22;4703;48.748;19.142;2022-10-31T18:25:10;11.00;99.90
9329;DHT22;4703;48.748;19.142;2022-10-31T18:27:37;11.00;99.90
9329;DHT22;4703;48.748;19.142;2022-10-31T18:30:04;11.10;99.90
9329;DHT22;4703;48.748;19.142;2022-10-31T18:32:32;11.00;99.90
9329;DHT22;4703;48.748;19.142;2022-10-31T18:34:59;11.10;99.90
9329;DHT22;4703;48.748;19.142;2022-10-31T18:37:26;11.10;99.90
9329;DHT22;4703;48.748;19.142;2022-10-31T18:39:53;13.80;99.90
9329;DHT22;4703;48.748;19.142;2022-10-31T18:42:20;11.00;99.90
9329;DHT22;4703;48.748;19.142;2022-10-31T18:44:47;11.00;99.90
9329;DHT22;4703;48.748;19.142;2022-10-31T18:47:14;11.00;99.90